KDNN/DNN METAR and TAF weather

Enter ICAO airport designator
Station Type Date Time Source
KDNN METAR 2018/01/21 12:35 UTC NOAA

KDNN 211235Z AUTO 00000KT 10SM CLR M01/M01 A3028 RMK AO2


Station Type Date Time Source
KDNN Decoded METAR 2018/01/21 12:35 UTC NOAA

Dalton, Dalton Municipal Airport, GA, United States (KDNN) 34-43-18N 084-52-09W
Jan 21, 2018 - 07:35 AM EST / 2018.01.21 1235 UTC
Wind: Calm:0
Visibility: 10 mile(s):0
Sky conditions: clear
Temperature: 30 F (-1 C)
Dew Point: 30 F (-1 C)
Relative Humidity: 100%
Pressure (altimeter): 30.28 in. Hg (1025 hPa)
ob: KDNN 211235Z AUTO 00000KT 10SM CLR M01/M01 A3028 RMK AO2
cycle: 12

Station Type Date Time Source
KDNN TAF UTC NOAA

Error!


Example: see airport list